createdAt,value
2022-07-27T00:01:50.837Z,22.80
2022-07-27T00:04:21.787Z,22.73
2022-07-27T00:06:48.694Z,22.64
2022-07-27T00:09:16.149Z,22.77
2022-07-27T00:11:43.241Z,22.64
2022-07-27T00:14:09.965Z,22.74
2022-07-27T00:16:36.944Z,22.67
2022-07-27T00:19:04.213Z,22.32
2022-07-27T00:21:35.788Z,22.47
2022-07-27T00:24:11.686Z,22.54
2022-07-27T00:26:38.767Z,22.50
2022-07-27T00:29:05.647Z,22.56
2022-07-27T00:31:32.208Z,22.69
2022-07-27T00:33:59.110Z,22.78
2022-07-27T00:36:26.395Z,22.90
2022-07-27T00:38:53.073Z,22.68
2022-07-27T00:41:20.138Z,22.91
2022-07-27T00:43:58.063Z,22.87
2022-07-27T00:46:26.519Z,22.81
2022-07-27T00:48:53.835Z,22.87
2022-07-27T00:51:22.049Z,22.76
2022-07-27T00:56:30.330Z,22.95
2022-07-27T00:58:58.216Z,22.89
2022-07-27T01:01:25.132Z,23.16
2022-07-27T01:03:51.926Z,23.07
2022-07-27T01:06:26.846Z,22.84
2022-07-27T01:09:18.163Z,22.90
2022-07-27T01:11:46.854Z,23.10
2022-07-27T01:14:15.226Z,23.15
2022-07-27T01:16:42.762Z,23.23
2022-07-27T01:19:10.823Z,23.20
2022-07-27T01:21:38.108Z,23.20
2022-07-27T01:24:05.355Z,23.10
2022-07-27T01:26:33.671Z,23.19
2022-07-27T01:29:01.323Z,23.11
2022-07-27T01:31:28.945Z,22.99
2022-07-27T01:33:55.920Z,23.08
2022-07-27T01:36:22.446Z,23.08
2022-07-27T01:38:49.284Z,23.12
2022-07-27T01:41:15.810Z,22.92
2022-07-27T01:43:42.548Z,22.93
2022-07-27T01:46:09.159Z,22.87
2022-07-27T01:48:36.243Z,22.62
2022-07-27T01:51:02.812Z,22.81
2022-07-27T01:53:29.355Z,22.66
2022-07-27T01:55:55.936Z,22.57
2022-07-27T01:58:22.445Z,22.63
2022-07-27T02:00:50.153Z,22.43
2022-07-27T02:03:17.120Z,22.47
2022-07-27T02:05:43.729Z,22.58
2022-07-27T02:08:10.374Z,22.56
2022-07-27T02:13:22.184Z,22.71
2022-07-27T02:15:49.694Z,22.58
2022-07-27T02:18:26.773Z,22.66
2022-07-27T02:21:02.802Z,22.73
2022-07-27T02:23:31.368Z,22.58
2022-07-27T02:25:58.749Z,22.62
2022-07-27T02:28:26.074Z,22.68
2022-07-27T02:30:53.011Z,22.69
2022-07-27T02:33:19.723Z,22.64
2022-07-27T02:35:46.352Z,22.54
2022-07-27T02:38:13.131Z,22.61
2022-07-27T02:40:39.840Z,22.55
2022-07-27T02:43:06.514Z,22.50
2022-07-27T02:45:33.246Z,22.51
2022-07-27T02:47:59.908Z,22.41
2022-07-27T02:50:26.736Z,22.16
2022-07-27T02:52:53.490Z,22.36
2022-07-27T02:55:20.352Z,22.37
2022-07-27T02:57:46.926Z,22.11
2022-07-27T03:00:16.297Z,22.17
2022-07-27T03:02:43.082Z,22.22
2022-07-27T03:05:11.465Z,21.87
2022-07-27T03:07:38.429Z,21.69
2022-07-27T03:10:05.803Z,21.68
2022-07-27T03:12:32.426Z,21.64
2022-07-27T03:14:58.963Z,21.61
2022-07-27T03:17:26.611Z,21.69
2022-07-27T03:19:53.213Z,21.65
2022-07-27T03:22:19.743Z,21.67
2022-07-27T03:24:46.505Z,21.56
2022-07-27T03:27:13.603Z,21.46
2022-07-27T03:29:40.150Z,21.46
2022-07-27T03:32:06.888Z,21.42
2022-07-27T03:34:33.467Z,21.53
2022-07-27T03:37:00.110Z,21.51
2022-07-27T03:39:27.082Z,21.42
2022-07-27T03:41:53.638Z,21.44
2022-07-27T03:44:20.173Z,21.34
2022-07-27T03:46:46.769Z,21.44
2022-07-27T03:49:13.995Z,21.45
2022-07-27T03:51:41.887Z,21.44
2022-07-27T03:54:08.431Z,21.41
2022-07-27T03:56:35.051Z,21.56
2022-07-27T03:59:01.618Z,21.23
2022-07-27T04:01:28.303Z,21.23
2022-07-27T04:03:54.834Z,21.41
2022-07-27T04:06:21.767Z,21.59
2022-07-27T04:08:48.415Z,21.55
2022-07-27T04:11:18.824Z,21.68
2022-07-27T04:13:49.253Z,21.67
2022-07-27T04:16:16.231Z,21.64
2022-07-27T04:18:42.991Z,21.74
2022-07-27T04:21:09.657Z,21.41
2022-07-27T04:23:38.490Z,21.49
2022-07-27T04:26:05.274Z,21.59
2022-07-27T04:28:32.839Z,21.76
2022-07-27T04:30:59.615Z,22.10
2022-07-27T04:33:26.307Z,22.27
2022-07-27T04:35:53.197Z,22.45
2022-07-27T04:38:20.033Z,22.72
2022-07-27T04:40:46.586Z,22.83
2022-07-27T04:43:13.187Z,22.76
2022-07-27T04:45:39.820Z,22.99
2022-07-27T04:48:08.634Z,23.16
2022-07-27T04:50:39.787Z,23.05
2022-07-27T04:53:06.359Z,22.79
2022-07-27T04:55:33.119Z,23.22
2022-07-27T04:57:59.728Z,23.22
2022-07-27T05:00:26.332Z,23.42
2022-07-27T05:02:52.900Z,23.79
2022-07-27T05:05:20.157Z,24.22
2022-07-27T05:07:46.782Z,24.36
2022-07-27T05:10:19.505Z,24.76
2022-07-27T05:12:46.940Z,24.26
2022-07-27T05:15:13.497Z,24.91
2022-07-27T05:17:40.356Z,24.95
2022-07-27T05:20:07.545Z,25.00
2022-07-27T05:22:39.339Z,25.39
2022-07-27T05:25:07.648Z,25.08
2022-07-27T05:27:34.207Z,25.12
2022-07-27T05:30:00.763Z,25.90
2022-07-27T05:32:27.350Z,27.38
2022-07-27T05:34:54.094Z,29.13
2022-07-27T05:37:20.735Z,30.88
2022-07-27T05:39:47.286Z,32.08
2022-07-27T05:42:14.161Z,33.82
2022-07-27T05:44:40.694Z,35.10
2022-07-27T05:47:07.594Z,35.44
2022-07-27T05:49:38.142Z,36.22
2022-07-27T05:52:04.930Z,36.18
2022-07-27T05:54:31.497Z,36.49
2022-07-27T05:56:58.303Z,37.22
2022-07-27T05:59:24.844Z,37.70
2022-07-27T06:01:51.663Z,38.80
2022-07-27T06:04:18.359Z,38.92
2022-07-27T06:07:03.399Z,39.57
2022-07-27T06:09:29.926Z,39.85
2022-07-27T06:11:56.918Z,39.88
2022-07-27T06:14:23.475Z,40.06
2022-07-27T06:16:50.072Z,40.71
2022-07-27T06:19:16.691Z,41.47
2022-07-27T06:21:43.234Z,42.23
2022-07-27T06:24:09.773Z,44.18
2022-07-27T06:26:36.433Z,42.51
2022-07-27T06:29:02.997Z,42.76
2022-07-27T06:31:37.775Z,42.99
2022-07-27T06:34:08.188Z,43.60
2022-07-27T06:36:39.787Z,43.73
2022-07-27T06:39:06.354Z,43.62
2022-07-27T06:41:34.522Z,43.15
2022-07-27T06:44:01.076Z,43.54
2022-07-27T06:46:27.708Z,44.35
2022-07-27T06:48:56.661Z,43.69
2022-07-27T06:51:24.093Z,44.46
2022-07-27T06:53:53.217Z,44.44
2022-07-27T06:56:21.253Z,44.36
2022-07-27T06:58:48.615Z,44.45
2022-07-27T07:01:15.301Z,45.04
2022-07-27T07:03:42.607Z,42.92
2022-07-27T07:06:09.242Z,43.40
2022-07-27T07:08:36.267Z,43.96
2022-07-27T07:11:03.359Z,43.58
2022-07-27T07:13:33.111Z,44.98
2022-07-27T07:16:03.716Z,42.56
2022-07-27T07:18:30.351Z,41.48
2022-07-27T07:20:56.886Z,41.32
2022-07-27T07:23:23.474Z,40.35
2022-07-27T07:25:50.105Z,39.55
2022-07-27T07:28:16.693Z,37.82
2022-07-27T07:30:44.198Z,37.56
2022-07-27T07:33:10.749Z,37.16
2022-07-27T07:35:37.296Z,37.77
2022-07-27T07:38:23.941Z,38.05
2022-07-27T07:40:50.482Z,38.66
2022-07-27T07:43:17.645Z,38.19
2022-07-27T07:45:51.633Z,37.17
2022-07-27T07:48:20.294Z,38.49
2022-07-27T07:50:52.065Z,39.62
2022-07-27T07:53:21.469Z,40.07
2022-07-27T07:55:48.092Z,39.58
2022-07-27T07:58:15.098Z,39.71
2022-07-27T08:00:42.118Z,38.75
2022-07-27T08:03:08.959Z,38.07
2022-07-27T08:05:35.970Z,36.94
2022-07-27T08:08:02.775Z,37.06
2022-07-27T08:10:29.370Z,36.43
2022-07-27T08:12:56.523Z,36.10
2022-07-27T08:15:30.028Z,35.83
2022-07-27T08:18:03.297Z,35.03
2022-07-27T08:20:29.887Z,34.52
2022-07-27T08:22:57.347Z,34.46
2022-07-27T08:25:23.891Z,32.93
2022-07-27T08:27:50.448Z,32.47
2022-07-27T08:30:17.867Z,32.06
2022-07-27T08:32:53.312Z,30.94
2022-07-27T08:35:21.124Z,30.31
2022-07-27T08:37:48.264Z,30.51
2022-07-27T08:43:02.913Z,31.43
2022-07-27T08:45:32.873Z,31.65
2022-07-27T08:47:59.922Z,31.02
2022-07-27T08:50:30.592Z,30.15
2022-07-27T08:53:00.503Z,30.07
2022-07-27T08:55:28.491Z,29.72
2022-07-27T08:58:02.249Z,28.90
2022-07-27T09:00:29.944Z,28.48
2022-07-27T09:02:57.787Z,28.02
2022-07-27T09:05:24.376Z,27.40
2022-07-27T09:07:51.714Z,27.95
2022-07-27T09:10:33.276Z,28.68
2022-07-27T09:13:15.644Z,29.08
2022-07-27T09:16:12.780Z,30.17
2022-07-27T09:18:33.795Z,31.40
2022-07-27T09:21:23.916Z,31.92
2022-07-27T09:23:53.358Z,31.85
2022-07-27T09:26:33.343Z,31.34
2022-07-27T09:29:06.972Z,30.67
2022-07-27T09:31:42.235Z,30.75
2022-07-27T09:34:09.453Z,31.12
2022-07-27T09:36:52.950Z,31.29
2022-07-27T09:39:22.771Z,31.88
2022-07-27T09:41:57.643Z,32.32
2022-07-27T09:44:42.963Z,32.69
2022-07-27T09:47:26.744Z,33.60
2022-07-27T09:50:06.847Z,34.21
2022-07-27T09:52:33.410Z,34.05
2022-07-27T09:55:05.539Z,34.39
2022-07-27T09:57:51.477Z,34.13
2022-07-27T10:00:18.493Z,33.77
2022-07-27T10:02:45.330Z,33.23
2022-07-27T10:05:13.974Z,32.80
2022-07-27T10:07:40.817Z,32.40
2022-07-27T10:10:07.818Z,32.54
2022-07-27T10:12:34.995Z,31.96
2022-07-27T10:15:01.626Z,31.62
2022-07-27T10:17:28.392Z,31.94
2022-07-27T10:19:56.949Z,31.48
2022-07-27T10:22:49.170Z,31.20
2022-07-27T10:25:15.751Z,30.91
2022-07-27T10:27:42.427Z,29.42
2022-07-27T10:30:09.715Z,28.82
2022-07-27T10:32:37.126Z,28.48
2022-07-27T10:35:03.934Z,28.13
2022-07-27T10:37:33.599Z,28.47
2022-07-27T10:40:21.880Z,28.24
2022-07-27T10:42:54.259Z,28.40
2022-07-27T10:45:22.432Z,28.20
2022-07-27T10:47:52.816Z,27.85
2022-07-27T10:50:20.819Z,28.07
2022-07-27T10:52:58.479Z,28.08
2022-07-27T10:55:36.258Z,28.30
2022-07-27T10:58:15.216Z,29.16
2022-07-27T11:00:58.985Z,28.88
2022-07-27T11:03:27.074Z,29.30
2022-07-27T11:06:21.987Z,29.63
2022-07-27T11:09:27.192Z,29.96
2022-07-27T11:11:40.534Z,30.21
2022-07-27T11:14:08.337Z,29.83
2022-07-27T11:16:53.988Z,30.19
2022-07-27T11:19:23.537Z,30.71
2022-07-27T11:21:52.324Z,31.69
2022-07-27T11:24:19.194Z,32.24
2022-07-27T11:26:51.174Z,32.94
2022-07-27T11:29:21.320Z,33.50
2022-07-27T11:31:56.388Z,34.09
2022-07-27T11:34:29.158Z,34.50
2022-07-27T11:36:58.237Z,34.49
2022-07-27T11:42:20.843Z,34.16
2022-07-27T11:44:48.846Z,33.61
2022-07-27T11:47:20.613Z,32.66
2022-07-27T11:49:47.271Z,32.31
2022-07-27T11:52:17.517Z,32.21
2022-07-27T11:54:44.074Z,31.31
2022-07-27T11:57:13.754Z,30.75
2022-07-27T11:59:42.635Z,30.98
2022-07-27T12:02:21.868Z,31.72
2022-07-27T12:04:50.649Z,31.24
2022-07-27T12:07:22.071Z,31.64
2022-07-27T12:09:56.562Z,30.93
2022-07-27T12:12:25.890Z,30.79
2022-07-27T12:14:57.260Z,31.33
2022-07-27T12:17:29.995Z,31.30
2022-07-27T12:20:07.148Z,31.73
2022-07-27T12:22:36.930Z,31.83
2022-07-27T12:25:24.035Z,32.48
2022-07-27T12:28:01.061Z,33.07
2022-07-27T12:30:37.884Z,33.31
2022-07-27T12:33:07.487Z,33.35
2022-07-27T12:35:46.425Z,31.95
2022-07-27T12:38:13.556Z,31.82
2022-07-27T12:40:46.137Z,31.71
2022-07-27T12:43:17.379Z,32.21
2022-07-27T12:45:44.114Z,32.68
2022-07-27T12:48:20.295Z,32.65
2022-07-27T12:50:56.557Z,32.78
2022-07-27T12:53:23.492Z,32.32
2022-07-27T12:55:50.032Z,32.71
2022-07-27T12:58:17.080Z,32.45
2022-07-27T13:00:43.913Z,32.32
2022-07-27T13:03:10.595Z,31.57
2022-07-27T13:05:37.159Z,31.62
2022-07-27T13:08:04.620Z,30.98
2022-07-27T13:10:31.357Z,31.32
2022-07-27T13:12:58.936Z,31.97
2022-07-27T13:15:26.264Z,32.03
2022-07-27T13:17:52.893Z,31.98
2022-07-27T13:20:19.726Z,32.10
2022-07-27T13:22:46.877Z,32.48
2022-07-27T13:25:16.996Z,33.27
2022-07-27T13:27:47.008Z,32.70
2022-07-27T13:30:15.769Z,31.83
2022-07-27T13:32:43.715Z,31.30
2022-07-27T13:35:12.419Z,31.27
2022-07-27T13:37:39.646Z,31.57
2022-07-27T13:40:07.646Z,31.93
2022-07-27T13:42:34.211Z,31.37
2022-07-27T13:45:08.480Z,31.70
2022-07-27T13:47:35.935Z,31.46
2022-07-27T13:50:03.488Z,31.22
2022-07-27T13:52:30.156Z,31.11
2022-07-27T13:54:56.750Z,30.77
2022-07-27T13:57:23.526Z,30.03
2022-07-27T13:59:50.081Z,30.60
2022-07-27T14:02:17.379Z,30.70
2022-07-27T14:04:49.754Z,30.76
2022-07-27T14:07:17.209Z,31.04
2022-07-27T14:10:02.883Z,31.19
2022-07-27T14:12:29.615Z,31.74
2022-07-27T14:14:56.752Z,31.53
2022-07-27T14:17:23.652Z,31.01
2022-07-27T14:19:50.192Z,30.68
2022-07-27T14:22:16.744Z,30.10
2022-07-27T14:24:43.518Z,29.59
2022-07-27T14:27:10.060Z,29.27
2022-07-27T14:29:36.601Z,28.94
2022-07-27T14:32:03.516Z,28.66
2022-07-27T14:34:30.116Z,28.59
2022-07-27T14:36:56.705Z,28.96
2022-07-27T14:39:23.754Z,29.30
2022-07-27T14:41:50.875Z,29.45
2022-07-27T14:44:18.819Z,29.63
2022-07-27T14:46:46.659Z,30.02
2022-07-27T14:49:14.796Z,30.32
2022-07-27T14:51:41.754Z,30.20
2022-07-27T14:54:08.413Z,30.31
2022-07-27T14:56:36.377Z,30.56
2022-07-27T14:59:03.459Z,30.19
2022-07-27T15:01:30.165Z,30.51
2022-07-27T15:03:56.764Z,31.16
2022-07-27T15:06:23.652Z,31.46
2022-07-27T15:08:50.181Z,31.41
2022-07-27T15:11:17.157Z,31.66
2022-07-27T15:13:43.714Z,31.95
2022-07-27T15:16:11.924Z,32.32
2022-07-27T15:18:39.127Z,32.67
2022-07-27T15:21:13.345Z,32.11
2022-07-27T15:23:43.131Z,31.68
2022-07-27T15:26:09.794Z,30.85
2022-07-27T15:28:36.464Z,30.30
2022-07-27T15:31:03.452Z,29.89
2022-07-27T15:33:30.478Z,30.33
2022-07-27T15:35:57.011Z,30.41
2022-07-27T15:38:23.564Z,30.55
2022-07-27T15:40:50.784Z,30.61
2022-07-27T15:43:18.327Z,30.24
2022-07-27T15:45:50.655Z,30.28
2022-07-27T15:48:20.027Z,30.51
2022-07-27T15:50:49.010Z,30.55
2022-07-27T15:53:16.209Z,29.95
2022-07-27T15:55:43.417Z,29.55
2022-07-27T15:58:11.005Z,29.76
2022-07-27T16:00:41.133Z,29.48
2022-07-27T16:03:10.125Z,29.36
2022-07-27T16:05:38.226Z,29.34
2022-07-27T16:08:06.229Z,29.55
2022-07-27T16:10:32.871Z,29.03
2022-07-27T16:13:00.507Z,28.63
2022-07-27T16:15:46.616Z,28.54
2022-07-27T16:18:14.109Z,28.34
2022-07-27T16:20:40.725Z,28.50
2022-07-27T16:23:17.610Z,28.59
2022-07-27T16:26:02.513Z,29.06
2022-07-27T16:28:31.920Z,29.20
2022-07-27T16:30:58.574Z,29.22
2022-07-27T16:33:25.260Z,29.66
2022-07-27T16:35:52.053Z,29.30
2022-07-27T16:38:18.945Z,29.22
2022-07-27T16:40:46.002Z,29.00
2022-07-27T16:43:12.569Z,28.75
2022-07-27T16:45:39.087Z,28.92
2022-07-27T16:48:06.121Z,29.09
2022-07-27T16:50:32.658Z,29.63
2022-07-27T16:52:59.246Z,29.28
2022-07-27T16:55:27.474Z,29.21
2022-07-27T16:57:54.421Z,28.97
2022-07-27T17:00:21.611Z,29.10
2022-07-27T17:02:48.133Z,28.99
2022-07-27T17:05:14.682Z,28.92
2022-07-27T17:07:43.045Z,29.14
2022-07-27T17:10:09.886Z,28.19
2022-07-27T17:12:39.248Z,28.07
2022-07-27T17:15:07.523Z,28.92
2022-07-27T17:17:34.531Z,29.24
2022-07-27T17:20:01.363Z,28.85
2022-07-27T17:22:27.930Z,28.50
2022-07-27T17:24:54.460Z,28.40
2022-07-27T17:27:21.868Z,28.04
2022-07-27T17:29:48.631Z,28.03
2022-07-27T17:32:15.482Z,28.15
2022-07-27T17:34:43.374Z,28.10
2022-07-27T17:37:09.920Z,27.65
2022-07-27T17:39:36.534Z,27.58
2022-07-27T17:42:04.440Z,27.57
2022-07-27T17:44:32.305Z,27.30
2022-07-27T17:47:01.191Z,27.32
2022-07-27T17:49:28.497Z,27.04
2022-07-27T17:51:55.400Z,26.42
2022-07-27T17:54:23.606Z,26.49
2022-07-27T17:56:50.178Z,26.57
2022-07-27T17:59:36.525Z,26.81
2022-07-27T18:02:04.857Z,27.12
2022-07-27T18:04:34.444Z,26.96
2022-07-27T18:07:05.636Z,26.58
2022-07-27T18:09:32.174Z,26.53
2022-07-27T18:11:58.781Z,26.52
2022-07-27T18:14:25.360Z,26.49
2022-07-27T18:16:51.927Z,26.83
2022-07-27T18:19:18.732Z,26.41
2022-07-27T18:21:45.300Z,26.48
2022-07-27T18:24:11.847Z,26.30
2022-07-27T18:26:38.675Z,26.46
2022-07-27T18:29:05.710Z,26.37
2022-07-27T18:31:32.474Z,26.74
2022-07-27T18:33:59.401Z,26.57
2022-07-27T18:36:26.063Z,26.17
2022-07-27T18:38:53.154Z,26.23
2022-07-27T18:41:19.870Z,26.19
2022-07-27T18:43:53.162Z,26.02
2022-07-27T18:46:21.570Z,26.11
2022-07-27T18:48:48.852Z,26.28
2022-07-27T18:51:16.232Z,26.41
2022-07-27T18:53:44.018Z,25.86
2022-07-27T18:56:10.922Z,26.17
2022-07-27T18:58:38.201Z,26.09
2022-07-27T19:01:04.826Z,25.80
2022-07-27T19:03:31.833Z,25.98
2022-07-27T19:05:58.894Z,25.77
2022-07-27T19:08:25.549Z,25.38
2022-07-27T19:10:53.007Z,25.52
2022-07-27T19:13:20.015Z,25.36
2022-07-27T19:15:46.572Z,25.41
2022-07-27T19:18:13.503Z,25.16
2022-07-27T19:20:41.297Z,25.28
2022-07-27T19:23:07.866Z,25.03
2022-07-27T19:25:34.717Z,24.94
2022-07-27T19:28:03.151Z,24.84
2022-07-27T19:30:29.877Z,24.72
2022-07-27T19:32:56.559Z,24.51
2022-07-27T19:35:23.371Z,24.72
2022-07-27T19:37:49.903Z,24.74
2022-07-27T19:43:07.021Z,24.70
2022-07-27T19:45:33.970Z,24.95
2022-07-27T19:48:05.336Z,24.99
2022-07-27T19:50:32.002Z,24.76
2022-07-27T19:52:58.579Z,24.95
2022-07-27T19:55:25.383Z,25.03
2022-07-27T19:57:52.213Z,24.95
2022-07-27T20:00:18.920Z,25.08
2022-07-27T20:02:45.811Z,24.38
2022-07-27T20:05:12.688Z,24.23
2022-07-27T20:07:39.225Z,24.09
2022-07-27T20:10:06.654Z,24.43
2022-07-27T20:12:33.375Z,24.28
2022-07-27T20:15:00.391Z,24.42
2022-07-27T20:17:27.857Z,24.56
2022-07-27T20:19:54.872Z,24.52
2022-07-27T20:22:21.471Z,24.15
2022-07-27T20:24:48.029Z,24.02
2022-07-27T20:27:14.599Z,24.09
2022-07-27T20:29:41.171Z,24.23
2022-07-27T20:32:07.867Z,24.42
2022-07-27T20:34:34.470Z,24.38
2022-07-27T20:37:01.004Z,24.49
2022-07-27T20:39:27.546Z,24.53
2022-07-27T20:41:54.217Z,24.52
2022-07-27T20:44:21.063Z,24.55
2022-07-27T20:46:48.057Z,24.52
2022-07-27T20:49:15.065Z,24.61
2022-07-27T20:51:42.097Z,24.74
2022-07-27T20:54:08.715Z,24.69
2022-07-27T20:56:35.283Z,24.42
2022-07-27T20:59:01.931Z,24.13
2022-07-27T21:01:29.930Z,24.16
2022-07-27T21:03:56.752Z,23.85
2022-07-27T21:06:23.524Z,23.75
2022-07-27T21:08:50.058Z,23.62
2022-07-27T21:11:16.905Z,23.64
2022-07-27T21:13:43.480Z,23.68
2022-07-27T21:16:10.079Z,23.68
2022-07-27T21:18:37.183Z,23.71
2022-07-27T21:21:03.894Z,23.51
2022-07-27T21:23:52.096Z,23.32
2022-07-27T21:26:18.681Z,23.38
2022-07-27T21:28:47.061Z,23.43
2022-07-27T21:31:13.593Z,23.41
2022-07-27T21:33:40.303Z,23.32
2022-07-27T21:36:07.192Z,23.33
2022-07-27T21:38:33.745Z,23.25
2022-07-27T21:41:00.326Z,23.27
2022-07-27T21:43:27.318Z,23.11
2022-07-27T21:45:53.880Z,23.07
2022-07-27T21:48:20.470Z,22.84
2022-07-27T21:50:47.221Z,22.72
2022-07-27T21:53:13.878Z,22.71
2022-07-27T21:55:40.962Z,22.43
2022-07-27T21:58:08.441Z,22.13
2022-07-27T22:00:35.186Z,22.31
2022-07-27T22:03:01.717Z,22.25
2022-07-27T22:05:28.257Z,22.11
2022-07-27T22:07:55.382Z,22.02
2022-07-27T22:10:22.295Z,22.03
2022-07-27T22:12:48.836Z,21.83
2022-07-27T22:15:15.375Z,21.57
2022-07-27T22:17:50.626Z,21.51
2022-07-27T22:20:18.221Z,21.44
2022-07-27T22:22:44.888Z,21.58
2022-07-27T22:25:11.583Z,21.68
2022-07-27T22:27:38.350Z,21.47
2022-07-27T22:30:05.771Z,21.61
2022-07-27T22:32:32.299Z,21.64
2022-07-27T22:34:58.870Z,21.66
2022-07-27T22:37:25.544Z,21.63
2022-07-27T22:39:52.605Z,21.58
2022-07-27T22:42:19.616Z,21.58
2022-07-27T22:44:46.195Z,21.57
2022-07-27T22:47:12.745Z,21.54
2022-07-27T22:49:39.276Z,21.41
2022-07-27T22:52:06.363Z,21.17
2022-07-27T22:54:34.403Z,21.43
2022-07-27T22:57:01.466Z,21.57
2022-07-27T22:59:28.055Z,21.68
2022-07-27T23:01:54.746Z,21.66
2022-07-27T23:04:21.366Z,21.64
2022-07-27T23:06:47.919Z,21.59
2022-07-27T23:09:15.163Z,21.47
2022-07-27T23:11:42.092Z,21.23
2022-07-27T23:14:08.946Z,21.26
2022-07-27T23:16:35.665Z,21.23
2022-07-27T23:19:02.888Z,21.13
2022-07-27T23:21:29.453Z,21.00
2022-07-27T23:23:56.182Z,20.87
2022-07-27T23:26:26.295Z,20.79
2022-07-27T23:28:54.001Z,20.71
2022-07-27T23:31:21.389Z,20.61
2022-07-27T23:33:48.065Z,20.74
2022-07-27T23:36:15.282Z,20.71
2022-07-27T23:38:41.837Z,20.66
2022-07-27T23:41:08.530Z,20.55
2022-07-27T23:43:35.113Z,20.37
2022-07-27T23:46:02.748Z,20.23
2022-07-27T23:48:29.318Z,20.24
2022-07-27T23:50:55.992Z,20.27
2022-07-27T23:53:23.766Z,20.31
2022-07-27T23:55:50.881Z,20.26
2022-07-27T23:58:17.431Z,20.30
